createdAt,value
2023-05-09T00:01:59.756Z,16.48
2023-05-09T00:04:26.244Z,16.49
2023-05-09T00:06:52.629Z,16.49
2023-05-09T00:09:19.076Z,16.51
2023-05-09T00:11:45.561Z,16.53
2023-05-09T00:14:14.849Z,16.53
2023-05-09T00:16:41.342Z,16.54
2023-05-09T00:19:07.779Z,16.54
2023-05-09T00:21:34.249Z,16.54
2023-05-09T00:24:01.089Z,16.51
2023-05-09T00:26:27.775Z,16.49
2023-05-09T00:28:54.189Z,16.46
2023-05-09T00:31:21.048Z,16.41
2023-05-09T00:33:47.464Z,16.43
2023-05-09T00:36:13.836Z,16.45
2023-05-09T00:38:40.230Z,16.43
2023-05-09T00:41:06.634Z,16.43
2023-05-09T00:43:33.093Z,16.37
2023-05-09T00:45:59.538Z,16.29
2023-05-09T00:48:26.153Z,16.25
2023-05-09T00:50:53.141Z,16.24
2023-05-09T00:53:20.700Z,16.24
2023-05-09T00:55:47.274Z,16.23
2023-05-09T00:58:13.950Z,16.28
2023-05-09T01:00:40.665Z,16.28
2023-05-09T01:03:07.555Z,16.24
2023-05-09T01:05:46.121Z,16.23
2023-05-09T01:08:36.419Z,16.21
2023-05-09T01:11:45.998Z,16.17
2023-05-09T01:14:23.152Z,16.16
2023-05-09T01:17:08.980Z,16.17
2023-05-09T01:19:57.440Z,16.20
2023-05-09T01:22:32.029Z,16.15
2023-05-09T01:25:21.720Z,16.09
2023-05-09T01:28:11.316Z,16.08
2023-05-09T01:30:38.125Z,16.09
2023-05-09T01:33:07.340Z,16.02
2023-05-09T01:35:36.378Z,16.01
2023-05-09T01:38:06.647Z,16.04
2023-05-09T01:40:33.690Z,16.09
2023-05-09T01:43:04.051Z,16.07
2023-05-09T01:45:31.457Z,16.08
2023-05-09T01:47:58.679Z,16.06
2023-05-09T01:50:25.315Z,16.06
2023-05-09T01:52:53.604Z,16.08
2023-05-09T01:55:21.569Z,16.08
2023-05-09T01:57:48.764Z,16.07
2023-05-09T02:00:15.429Z,16.07
2023-05-09T02:02:42.155Z,16.06
2023-05-09T02:05:09.830Z,16.09
2023-05-09T02:07:36.892Z,16.07
2023-05-09T02:10:04.841Z,16.07
2023-05-09T02:12:31.308Z,15.98
2023-05-09T02:14:57.806Z,15.98
2023-05-09T02:17:24.313Z,15.97
2023-05-09T02:19:50.790Z,15.98
2023-05-09T02:22:17.298Z,15.90
2023-05-09T02:24:45.111Z,15.83
2023-05-09T02:27:12.207Z,15.81
2023-05-09T02:29:49.091Z,15.83
2023-05-09T02:32:17.964Z,15.77
2023-05-09T02:34:45.348Z,15.74
2023-05-09T02:37:12.423Z,15.77
2023-05-09T02:39:38.854Z,15.76
2023-05-09T02:42:07.903Z,15.72
2023-05-09T02:44:34.680Z,15.73
2023-05-09T02:47:02.781Z,15.72
2023-05-09T02:49:32.465Z,15.71
2023-05-09T02:51:59.424Z,15.67
2023-05-09T02:54:25.891Z,15.67
2023-05-09T02:56:52.625Z,15.64
2023-05-09T02:59:20.110Z,15.64
2023-05-09T03:01:46.895Z,15.65
2023-05-09T03:04:13.468Z,15.60
2023-05-09T03:06:39.849Z,15.55
2023-05-09T03:09:07.256Z,15.55
2023-05-09T03:11:36.574Z,15.57
2023-05-09T03:14:03.730Z,15.55
2023-05-09T03:16:30.284Z,15.56
2023-05-09T03:18:57.171Z,15.56
2023-05-09T03:21:23.592Z,15.59
2023-05-09T03:23:50.050Z,15.61
2023-05-09T03:26:16.409Z,15.64
2023-05-09T03:28:42.800Z,15.67
2023-05-09T03:31:09.550Z,15.69
2023-05-09T03:33:35.982Z,15.67
2023-05-09T03:36:02.430Z,15.62
2023-05-09T03:38:28.811Z,15.62
2023-05-09T03:40:55.339Z,15.65
2023-05-09T03:43:21.769Z,15.66
2023-05-09T03:45:48.149Z,15.64
2023-05-09T03:48:14.589Z,15.64
2023-05-09T03:50:40.986Z,15.62
2023-05-09T03:53:07.423Z,15.58
2023-05-09T03:55:33.878Z,15.51
2023-05-09T03:58:00.330Z,15.54
2023-05-09T04:00:26.728Z,15.52
2023-05-09T04:02:53.650Z,15.52
2023-05-09T04:05:20.300Z,15.57
2023-05-09T04:07:46.921Z,15.62
2023-05-09T04:10:13.347Z,15.58
2023-05-09T04:12:39.822Z,15.59
2023-05-09T04:15:06.961Z,15.59
2023-05-09T04:17:33.477Z,15.56
2023-05-09T04:19:59.904Z,15.50
2023-05-09T04:22:26.313Z,15.47
2023-05-09T04:24:52.810Z,15.50
2023-05-09T04:27:19.480Z,15.52
2023-05-09T04:29:45.943Z,15.47
2023-05-09T04:32:12.393Z,15.46
2023-05-09T04:34:38.806Z,15.42
2023-05-09T04:37:05.539Z,15.41
2023-05-09T04:39:32.038Z,15.39
2023-05-09T04:41:58.496Z,15.45
2023-05-09T04:44:24.920Z,15.52
2023-05-09T04:46:51.399Z,15.54
2023-05-09T04:49:17.891Z,15.53
2023-05-09T04:51:44.323Z,15.49
2023-05-09T04:54:10.930Z,15.50
2023-05-09T04:56:37.302Z,15.55
2023-05-09T04:59:03.678Z,15.50
2023-05-09T05:01:30.881Z,15.51
2023-05-09T05:03:57.397Z,15.54
2023-05-09T05:06:23.827Z,15.56
2023-05-09T05:08:50.201Z,15.61
2023-05-09T05:11:17.908Z,15.59
2023-05-09T05:13:44.658Z,15.56
2023-05-09T05:16:11.132Z,15.54
2023-05-09T05:18:37.557Z,15.55
2023-05-09T05:21:03.938Z,15.53
2023-05-09T05:23:30.377Z,15.58
2023-05-09T05:25:56.918Z,15.61
2023-05-09T05:28:23.478Z,15.64
2023-05-09T05:30:49.915Z,15.63
2023-05-09T05:33:16.363Z,15.68
2023-05-09T05:35:42.757Z,15.72
2023-05-09T05:38:09.203Z,15.78
2023-05-09T05:40:35.590Z,15.80
2023-05-09T05:43:02.082Z,15.82
2023-05-09T05:45:30.245Z,15.89
2023-05-09T05:47:56.858Z,15.90
2023-05-09T05:50:23.268Z,15.90
2023-05-09T05:52:49.717Z,15.94
2023-05-09T05:55:16.525Z,16.00
2023-05-09T05:57:44.180Z,16.10
2023-05-09T06:00:11.538Z,16.12
2023-05-09T06:02:38.152Z,16.13
2023-05-09T06:05:05.950Z,16.07
2023-05-09T06:07:32.355Z,16.11
2023-05-09T06:09:58.763Z,16.10
2023-05-09T06:12:27.339Z,16.13
2023-05-09T06:14:54.502Z,16.05
2023-05-09T06:17:21.146Z,16.04
2023-05-09T06:19:47.539Z,16.06
2023-05-09T06:22:13.987Z,16.10
2023-05-09T06:24:40.424Z,16.12
2023-05-09T06:27:06.855Z,16.17
2023-05-09T06:29:33.291Z,16.22
2023-05-09T06:31:59.853Z,16.24
2023-05-09T06:34:26.344Z,16.23
2023-05-09T06:36:52.809Z,16.18
2023-05-09T06:39:19.549Z,16.20
2023-05-09T06:41:46.012Z,16.12
2023-05-09T06:44:12.366Z,16.01
2023-05-09T06:46:38.886Z,15.97
2023-05-09T06:49:06.056Z,15.95
2023-05-09T06:51:32.614Z,15.95
2023-05-09T06:53:59.014Z,15.94
2023-05-09T06:56:26.442Z,15.96
2023-05-09T06:58:52.923Z,15.92
2023-05-09T07:01:19.305Z,15.94
2023-05-09T07:03:47.514Z,15.89
2023-05-09T07:06:13.931Z,15.89
2023-05-09T07:08:40.491Z,15.87
2023-05-09T07:11:06.878Z,15.86
2023-05-09T07:13:33.317Z,15.92
2023-05-09T07:15:59.719Z,15.93
2023-05-09T07:18:26.155Z,15.93
2023-05-09T07:20:52.571Z,15.91
2023-05-09T07:23:19.025Z,15.91
2023-05-09T07:25:45.482Z,15.89
2023-05-09T07:28:12.713Z,15.94
2023-05-09T07:30:39.233Z,15.96
2023-05-09T07:33:06.727Z,15.86
2023-05-09T07:35:33.268Z,15.89
2023-05-09T07:37:59.645Z,15.82
2023-05-09T07:40:26.085Z,15.85
2023-05-09T07:42:54.934Z,15.94
2023-05-09T07:45:23.658Z,16.03
2023-05-09T07:47:50.628Z,16.03
2023-05-09T07:50:17.392Z,16.00
2023-05-09T07:52:43.925Z,15.92
2023-05-09T07:55:12.251Z,15.92
2023-05-09T07:57:39.835Z,15.91
2023-05-09T08:00:07.882Z,15.84
2023-05-09T08:02:34.392Z,15.89
2023-05-09T08:05:00.945Z,15.94
2023-05-09T08:07:27.393Z,15.99
2023-05-09T08:09:53.837Z,16.02
2023-05-09T08:12:20.243Z,16.01
2023-05-09T08:14:46.905Z,16.06
2023-05-09T08:17:13.332Z,16.08
2023-05-09T08:19:39.806Z,16.09
2023-05-09T08:22:06.246Z,16.14
2023-05-09T08:24:32.724Z,16.18
2023-05-09T08:26:59.878Z,16.17
2023-05-09T08:29:26.334Z,16.14
2023-05-09T08:31:52.939Z,16.15
2023-05-09T08:34:20.772Z,16.15
2023-05-09T08:36:47.175Z,16.09
2023-05-09T08:39:13.583Z,16.12
2023-05-09T08:41:40.094Z,16.20
2023-05-09T08:44:06.823Z,16.27
2023-05-09T08:46:37.143Z,16.30
2023-05-09T08:49:07.136Z,16.29
2023-05-09T08:51:34.440Z,16.30
2023-05-09T08:54:01.406Z,16.25
2023-05-09T08:56:29.022Z,16.22
2023-05-09T08:58:55.642Z,16.19
2023-05-09T09:01:23.497Z,16.14
2023-05-09T09:03:50.326Z,16.15
2023-05-09T09:06:17.504Z,16.22
2023-05-09T09:08:44.214Z,16.22
2023-05-09T09:11:13.787Z,16.30
2023-05-09T09:13:41.738Z,16.32
2023-05-09T09:16:16.642Z,16.28
2023-05-09T09:18:43.432Z,16.30
2023-05-09T09:21:10.610Z,16.28
2023-05-09T09:23:39.346Z,16.32
2023-05-09T09:26:05.754Z,16.28
2023-05-09T09:28:32.497Z,16.21
2023-05-09T09:30:58.878Z,16.21
2023-05-09T09:33:26.990Z,16.23
2023-05-09T09:35:54.806Z,16.14
2023-05-09T09:38:22.783Z,16.05
2023-05-09T09:40:52.118Z,16.10
2023-05-09T09:43:18.736Z,16.10
2023-05-09T09:45:49.042Z,16.16
2023-05-09T09:48:15.769Z,16.24
2023-05-09T09:50:42.461Z,16.25
2023-05-09T09:53:08.904Z,16.27
2023-05-09T09:55:35.747Z,16.36
2023-05-09T09:58:02.296Z,16.38
2023-05-09T10:00:28.799Z,16.39
2023-05-09T10:02:56.348Z,16.39
2023-05-09T10:05:28.404Z,16.39
2023-05-09T10:08:05.021Z,16.32
2023-05-09T10:10:33.722Z,16.28
2023-05-09T10:13:07.437Z,16.24
2023-05-09T10:15:49.353Z,16.30
2023-05-09T10:18:23.223Z,16.29
2023-05-09T10:20:50.168Z,16.34
2023-05-09T10:23:18.137Z,16.41
2023-05-09T10:25:47.560Z,16.47
2023-05-09T10:28:18.926Z,16.41
2023-05-09T10:31:03.845Z,16.39
2023-05-09T10:33:44.085Z,16.37
2023-05-09T10:36:10.977Z,16.35
2023-05-09T10:38:37.400Z,16.39
2023-05-09T10:41:04.126Z,16.37
2023-05-09T10:43:33.704Z,16.34
2023-05-09T10:46:01.640Z,16.34
2023-05-09T10:48:28.590Z,16.31
2023-05-09T10:50:55.649Z,16.34
2023-05-09T10:53:24.385Z,16.33
2023-05-09T10:55:59.039Z,16.38
2023-05-09T10:58:40.773Z,16.38
2023-05-09T11:01:07.484Z,16.34
2023-05-09T11:03:54.737Z,16.31
2023-05-09T11:06:49.308Z,16.29
2023-05-09T11:09:35.807Z,16.33
2023-05-09T11:12:04.865Z,16.29
2023-05-09T11:14:37.261Z,16.22
2023-05-09T11:17:04.561Z,16.20
2023-05-09T11:19:36.884Z,16.18
2023-05-09T11:22:13.920Z,16.28
2023-05-09T11:24:44.688Z,16.28
2023-05-09T11:27:24.553Z,16.35
2023-05-09T11:29:59.179Z,16.36
2023-05-09T11:32:32.277Z,16.34
2023-05-09T11:35:15.735Z,16.26
2023-05-09T11:37:55.021Z,16.20
2023-05-09T11:40:22.333Z,16.22
2023-05-09T11:42:51.038Z,16.28
2023-05-09T11:45:17.789Z,16.29
2023-05-09T11:47:45.804Z,16.27
2023-05-09T11:50:13.626Z,16.25
2023-05-09T11:52:40.818Z,16.32
2023-05-09T11:55:12.807Z,16.33
2023-05-09T11:57:41.291Z,16.32
2023-05-09T12:00:09.295Z,16.36
2023-05-09T12:02:36.538Z,16.32
2023-05-09T12:05:10.378Z,16.25
2023-05-09T12:07:38.028Z,16.32
2023-05-09T12:10:06.850Z,16.27
2023-05-09T12:12:37.491Z,16.35
2023-05-09T12:15:08.225Z,16.36
2023-05-09T12:17:35.505Z,16.43
2023-05-09T12:20:04.280Z,16.51
2023-05-09T12:22:30.982Z,16.53
2023-05-09T12:24:59.600Z,16.57
2023-05-09T12:27:28.262Z,16.49
2023-05-09T12:29:55.442Z,16.39
2023-05-09T12:32:21.994Z,16.40
2023-05-09T12:34:48.937Z,16.39
2023-05-09T12:37:17.307Z,16.38
2023-05-09T12:40:07.024Z,16.50
2023-05-09T12:42:35.409Z,16.50
2023-05-09T12:45:03.030Z,16.47
2023-05-09T12:47:31.001Z,16.44
2023-05-09T12:50:01.409Z,16.38
2023-05-09T12:52:46.930Z,16.31
2023-05-09T12:55:20.985Z,16.39
2023-05-09T12:57:58.303Z,16.44
2023-05-09T13:00:24.991Z,16.42
2023-05-09T13:02:52.758Z,16.44
2023-05-09T13:05:21.486Z,16.44
2023-05-09T13:07:50.140Z,16.43
2023-05-09T13:10:23.780Z,16.41
2023-05-09T13:12:51.456Z,16.45
2023-05-09T13:15:22.688Z,16.36
2023-05-09T13:17:52.692Z,16.39
2023-05-09T13:20:19.558Z,16.37
2023-05-09T13:22:46.192Z,16.41
2023-05-09T13:25:12.921Z,16.44
2023-05-09T13:27:39.407Z,16.43
2023-05-09T13:30:07.732Z,16.45
2023-05-09T13:32:34.692Z,16.53
2023-05-09T13:35:01.196Z,16.55
2023-05-09T13:37:28.058Z,16.64
2023-05-09T13:39:55.352Z,16.68
2023-05-09T13:42:21.870Z,16.77
2023-05-09T13:44:48.283Z,16.85
2023-05-09T13:47:14.663Z,16.95
2023-05-09T13:49:41.093Z,16.91
2023-05-09T13:52:08.260Z,16.90
2023-05-09T13:54:35.139Z,16.84
2023-05-09T13:57:03.510Z,16.86
2023-05-09T13:59:32.976Z,16.96
2023-05-09T14:02:00.394Z,17.06
2023-05-09T14:04:27.843Z,17.18
2023-05-09T14:06:58.705Z,17.10
2023-05-09T14:09:25.237Z,17.13
2023-05-09T14:11:52.825Z,17.08
2023-05-09T14:14:20.866Z,16.97
2023-05-09T14:16:47.793Z,16.97
2023-05-09T14:19:17.560Z,17.03
2023-05-09T14:21:44.745Z,17.04
2023-05-09T14:24:15.088Z,17.09
2023-05-09T14:26:42.354Z,17.05
2023-05-09T14:29:08.799Z,17.04
2023-05-09T14:31:35.253Z,16.96
2023-05-09T14:34:01.736Z,16.87
2023-05-09T14:36:28.795Z,16.81
2023-05-09T14:38:55.235Z,16.83
2023-05-09T14:41:22.218Z,16.81
2023-05-09T14:43:48.916Z,16.80
2023-05-09T14:46:15.555Z,16.85
2023-05-09T14:48:42.196Z,16.85
2023-05-09T14:51:08.661Z,16.92
2023-05-09T14:53:39.703Z,16.91
2023-05-09T14:56:06.870Z,16.83
2023-05-09T14:58:36.551Z,16.74
2023-05-09T15:01:04.175Z,16.76
2023-05-09T15:03:30.720Z,16.77
2023-05-09T15:05:58.611Z,16.78
2023-05-09T15:08:25.431Z,16.80
2023-05-09T15:10:51.846Z,16.77
2023-05-09T15:13:18.327Z,16.68
2023-05-09T15:15:44.848Z,16.66
2023-05-09T15:18:13.247Z,16.54
2023-05-09T15:20:39.836Z,16.56
2023-05-09T15:23:07.806Z,16.56
2023-05-09T15:25:34.508Z,16.62
2023-05-09T15:28:01.246Z,16.65
2023-05-09T15:30:27.770Z,16.60
2023-05-09T15:32:54.212Z,16.62
2023-05-09T15:35:20.774Z,16.64
2023-05-09T15:37:47.190Z,16.64
2023-05-09T15:40:13.904Z,16.60
2023-05-09T15:42:40.980Z,16.68
2023-05-09T15:45:08.126Z,16.70
2023-05-09T15:47:34.613Z,16.68
2023-05-09T15:50:01.039Z,16.70
2023-05-09T15:52:27.835Z,16.74
2023-05-09T15:54:55.253Z,16.75
2023-05-09T15:57:22.077Z,16.73
2023-05-09T15:59:48.517Z,16.76
2023-05-09T16:02:15.129Z,16.83
2023-05-09T16:04:42.481Z,16.77
2023-05-09T16:07:08.916Z,16.74
2023-05-09T16:09:35.377Z,16.71
2023-05-09T16:12:01.903Z,16.64
2023-05-09T16:14:28.361Z,16.51
2023-05-09T16:16:54.846Z,16.52
2023-05-09T16:19:21.705Z,16.51
2023-05-09T16:21:48.398Z,16.48
2023-05-09T16:24:14.840Z,16.50
2023-05-09T16:26:41.318Z,16.56
2023-05-09T16:29:07.775Z,16.59
2023-05-09T16:31:35.638Z,16.58
2023-05-09T16:34:02.919Z,16.58
2023-05-09T16:36:29.897Z,16.62
2023-05-09T16:38:56.401Z,16.53
2023-05-09T16:41:22.888Z,16.50
2023-05-09T16:43:49.344Z,16.52
2023-05-09T16:46:16.168Z,16.50
2023-05-09T16:48:42.657Z,16.51
2023-05-09T16:51:09.188Z,16.51
2023-05-09T16:53:36.280Z,16.52
2023-05-09T16:56:03.908Z,16.43
2023-05-09T16:58:30.435Z,16.37
2023-05-09T17:00:57.036Z,16.42
2023-05-09T17:03:23.861Z,16.46
2023-05-09T17:05:51.139Z,16.39
2023-05-09T17:08:17.508Z,16.41
2023-05-09T17:10:43.934Z,16.43
2023-05-09T17:13:10.447Z,16.43
2023-05-09T17:15:38.343Z,16.44
2023-05-09T17:18:05.085Z,16.47
2023-05-09T17:20:31.750Z,16.46
2023-05-09T17:22:58.178Z,16.43
2023-05-09T17:25:24.553Z,16.43
2023-05-09T17:27:50.955Z,16.44
2023-05-09T17:30:18.803Z,16.49
2023-05-09T17:32:46.734Z,16.48
2023-05-09T17:35:13.792Z,16.38
2023-05-09T17:37:40.416Z,16.40
2023-05-09T17:40:07.814Z,16.37
2023-05-09T17:42:34.294Z,16.42
2023-05-09T17:45:00.844Z,16.34
2023-05-09T17:47:28.617Z,16.36
2023-05-09T17:49:55.229Z,16.38
2023-05-09T17:52:22.111Z,16.36
2023-05-09T17:54:48.698Z,16.37
2023-05-09T17:57:15.134Z,16.36
2023-05-09T17:59:41.743Z,16.27
2023-05-09T18:02:08.240Z,16.19
2023-05-09T18:04:34.768Z,16.20
2023-05-09T18:07:01.509Z,16.13
2023-05-09T18:09:28.112Z,16.13
2023-05-09T18:11:54.532Z,16.16
2023-05-09T18:14:20.911Z,16.19
2023-05-09T18:16:47.322Z,16.19
2023-05-09T18:19:13.749Z,16.24
2023-05-09T18:21:40.484Z,16.27
2023-05-09T18:24:09.058Z,16.28
2023-05-09T18:26:35.477Z,16.28
2023-05-09T18:29:02.066Z,16.30
2023-05-09T18:31:28.511Z,16.30
2023-05-09T18:33:54.985Z,16.32
2023-05-09T18:36:22.687Z,16.30
2023-05-09T18:38:49.124Z,16.19
2023-05-09T18:41:16.949Z,16.15
2023-05-09T18:43:46.460Z,16.14
2023-05-09T18:46:17.177Z,16.16
2023-05-09T18:48:45.095Z,16.15
2023-05-09T18:51:11.895Z,16.14
2023-05-09T18:53:38.814Z,16.10
2023-05-09T18:56:05.302Z,16.10
2023-05-09T18:58:32.394Z,16.05
2023-05-09T19:00:58.953Z,16.04
2023-05-09T19:03:25.472Z,16.01
2023-05-09T19:05:51.867Z,16.01
2023-05-09T19:08:18.262Z,15.95
2023-05-09T19:10:44.872Z,15.94
2023-05-09T19:13:12.799Z,15.92
2023-05-09T19:15:40.515Z,15.93
2023-05-09T19:18:07.098Z,15.92
2023-05-09T19:20:33.539Z,15.90
2023-05-09T19:22:59.976Z,15.85
2023-05-09T19:25:26.577Z,15.82
2023-05-09T19:27:54.065Z,15.82
2023-05-09T19:30:20.827Z,15.76
2023-05-09T19:32:47.332Z,15.75
2023-05-09T19:35:13.876Z,15.74
2023-05-09T19:37:40.744Z,15.65
2023-05-09T19:40:07.592Z,15.63
2023-05-09T19:42:34.322Z,15.57
2023-05-09T19:45:00.967Z,15.54
2023-05-09T19:47:27.804Z,15.53
2023-05-09T19:49:54.218Z,15.53
2023-05-09T19:52:21.054Z,15.48
2023-05-09T19:54:47.455Z,15.44
2023-05-09T19:57:13.869Z,15.42
2023-05-09T19:59:40.237Z,15.40
2023-05-09T20:02:06.923Z,15.39
2023-05-09T20:04:36.871Z,15.36
2023-05-09T20:07:04.414Z,15.34
2023-05-09T20:09:32.744Z,15.34
2023-05-09T20:12:01.517Z,15.29
2023-05-09T20:14:27.896Z,15.27
2023-05-09T20:16:56.715Z,15.24
2023-05-09T20:19:23.271Z,15.23
2023-05-09T20:21:49.999Z,15.21
2023-05-09T20:24:19.097Z,15.18
2023-05-09T20:26:45.529Z,15.15
2023-05-09T20:29:11.937Z,15.10
2023-05-09T20:31:38.445Z,15.07
2023-05-09T20:34:04.846Z,15.08
2023-05-09T20:36:31.306Z,15.07
2023-05-09T20:38:57.799Z,15.07
2023-05-09T20:41:24.302Z,15.08
2023-05-09T20:43:50.813Z,15.08
2023-05-09T20:46:17.403Z,15.09
2023-05-09T20:48:44.272Z,15.07
2023-05-09T20:51:10.744Z,15.11
2023-05-09T20:53:37.712Z,15.12
2023-05-09T20:56:04.917Z,15.11
2023-05-09T20:58:32.719Z,15.11
2023-05-09T21:00:59.424Z,15.07
2023-05-09T21:03:26.016Z,15.07
2023-05-09T21:05:52.482Z,15.08
2023-05-09T21:08:19.234Z,15.07
2023-05-09T21:10:45.642Z,15.08
2023-05-09T21:13:12.119Z,15.07
2023-05-09T21:15:38.579Z,15.06
2023-05-09T21:18:05.065Z,15.07
2023-05-09T21:20:31.501Z,15.07
2023-05-09T21:22:57.888Z,15.07
2023-05-09T21:25:24.394Z,15.07
2023-05-09T21:27:50.772Z,15.01
2023-05-09T21:30:17.380Z,15.04
2023-05-09T21:32:43.991Z,15.01
2023-05-09T21:35:12.650Z,15.03
2023-05-09T21:37:39.314Z,15.02
2023-05-09T21:40:06.491Z,15.01
2023-05-09T21:42:32.995Z,15.00
2023-05-09T21:44:59.369Z,15.00
2023-05-09T21:47:26.058Z,14.98
2023-05-09T21:49:52.769Z,14.98
2023-05-09T21:52:19.387Z,14.98
2023-05-09T21:54:45.779Z,14.98
2023-05-09T21:57:12.151Z,14.98
2023-05-09T21:59:38.512Z,14.98
2023-05-09T22:02:05.267Z,14.98
2023-05-09T22:04:31.686Z,14.98
2023-05-09T22:06:58.077Z,14.98
2023-05-09T22:09:24.503Z,14.99
2023-05-09T22:11:52.720Z,14.98
2023-05-09T22:14:19.071Z,14.98
2023-05-09T22:16:45.650Z,14.98
2023-05-09T22:19:12.106Z,14.98
2023-05-09T22:21:38.550Z,14.94
2023-05-09T22:24:05.479Z,14.95
2023-05-09T22:26:33.026Z,14.97
2023-05-09T22:28:59.492Z,14.98
2023-05-09T22:31:26.186Z,14.98
2023-05-09T22:33:52.765Z,14.99
2023-05-09T22:36:19.660Z,14.98
2023-05-09T22:38:52.238Z,14.99
2023-05-09T22:41:18.867Z,14.98
2023-05-09T22:43:45.251Z,14.98
2023-05-09T22:46:11.935Z,14.98
2023-05-09T22:48:38.371Z,15.00
2023-05-09T22:51:04.845Z,14.99
2023-05-09T22:53:31.277Z,15.01
2023-05-09T22:55:57.813Z,15.02
2023-05-09T22:58:24.218Z,15.00
2023-05-09T23:00:50.842Z,14.99
2023-05-09T23:03:18.476Z,14.91
2023-05-09T23:05:44.920Z,14.88
2023-05-09T23:08:11.339Z,14.89
2023-05-09T23:10:37.879Z,14.90
2023-05-09T23:13:04.765Z,14.92
2023-05-09T23:15:31.214Z,14.94
2023-05-09T23:17:57.629Z,14.95
2023-05-09T23:20:24.054Z,14.98
2023-05-09T23:22:50.484Z,14.96
2023-05-09T23:25:16.865Z,14.97
2023-05-09T23:27:44.494Z,14.96
2023-05-09T23:30:11.275Z,14.97
2023-05-09T23:32:37.761Z,14.96
2023-05-09T23:35:04.742Z,14.94
2023-05-09T23:37:31.198Z,14.92
2023-05-09T23:39:58.168Z,14.86
2023-05-09T23:42:24.603Z,14.86
2023-05-09T23:44:51.234Z,14.86
2023-05-09T23:47:17.580Z,14.88
2023-05-09T23:49:43.937Z,14.90
2023-05-09T23:52:10.287Z,14.91
2023-05-09T23:54:37.289Z,14.90
2023-05-09T23:57:04.037Z,14.91
2023-05-09T23:59:30.443Z,14.94
